createdAt,value
2018-08-11T00:01:07.765Z,17.60
2018-08-11T00:03:36.032Z,17.60
2018-08-11T00:08:55.073Z,17.70
2018-08-11T00:11:23.347Z,17.80
2018-08-11T00:13:52.523Z,17.90
2018-08-11T00:16:20.817Z,17.90
2018-08-11T00:18:49.107Z,18.00
2018-08-11T00:21:17.374Z,18.00
2018-08-11T00:23:45.679Z,18.00
2018-08-11T00:26:13.973Z,18.00
2018-08-11T00:28:42.296Z,18.10
2018-08-11T00:31:10.574Z,18.10
2018-08-11T00:33:38.843Z,18.00
2018-08-11T00:36:07.149Z,18.00
2018-08-11T00:38:35.493Z,18.00
2018-08-11T00:41:03.761Z,18.00
2018-08-11T00:43:32.079Z,17.90
2018-08-11T00:46:00.340Z,17.90
2018-08-11T00:48:28.624Z,17.90
2018-08-11T00:50:56.903Z,17.80
2018-08-11T00:53:25.178Z,17.80
2018-08-11T00:55:53.474Z,17.70
2018-08-11T00:58:21.758Z,17.70
2018-08-11T01:00:50.041Z,17.60
2018-08-11T01:03:18.344Z,17.60
2018-08-11T01:05:46.623Z,17.60
2018-08-11T01:08:14.891Z,17.50
2018-08-11T01:10:43.264Z,17.60
2018-08-11T01:13:11.500Z,17.60
2018-08-11T01:15:39.786Z,17.60
2018-08-11T01:18:08.066Z,17.60
2018-08-11T01:20:36.352Z,17.60
2018-08-11T01:23:04.647Z,17.60
2018-08-11T01:25:32.923Z,17.50
2018-08-11T01:28:01.195Z,17.60
2018-08-11T01:30:29.502Z,17.40
2018-08-11T01:35:48.435Z,17.40
2018-08-11T01:38:16.703Z,17.40
2018-08-11T01:40:44.947Z,17.40
2018-08-11T01:43:13.204Z,17.40
2018-08-11T01:45:41.482Z,17.30
2018-08-11T01:48:09.743Z,17.30
2018-08-11T01:50:38.015Z,17.30
2018-08-11T01:53:06.268Z,17.20
2018-08-11T01:55:34.531Z,17.10
2018-08-11T01:58:02.828Z,17.10
2018-08-11T02:00:31.096Z,17.00
2018-08-11T02:02:59.352Z,16.80
2018-08-11T02:05:27.659Z,16.70
2018-08-11T02:07:55.919Z,16.60
2018-08-11T02:10:24.170Z,16.40
2018-08-11T02:12:52.423Z,16.30
2018-08-11T02:15:20.695Z,16.20
2018-08-11T02:17:48.958Z,16.10
2018-08-11T02:20:18.484Z,16.20
2018-08-11T02:22:47.780Z,16.00
2018-08-11T02:25:16.297Z,15.90
2018-08-11T02:27:44.579Z,16.00
2018-08-11T02:30:16.750Z,15.90
2018-08-11T02:32:45.027Z,15.80
2018-08-11T02:35:13.839Z,15.60
2018-08-11T02:37:42.528Z,15.50
2018-08-11T02:40:12.276Z,15.50
2018-08-11T02:42:47.359Z,15.40
2018-08-11T02:45:16.825Z,15.30
2018-08-11T02:47:45.627Z,15.30
2018-08-11T02:50:19.059Z,15.10
2018-08-11T02:52:47.319Z,15.00
2018-08-11T02:55:15.580Z,14.90
2018-08-11T02:57:43.822Z,14.80
2018-08-11T03:00:12.658Z,14.80
2018-08-11T03:02:40.934Z,14.80
2018-08-11T03:05:09.336Z,14.70
2018-08-11T03:07:38.088Z,14.70
2018-08-11T03:10:08.212Z,14.70
2018-08-11T03:12:36.476Z,14.80
2018-08-11T03:15:05.718Z,14.70
2018-08-11T03:17:34.009Z,14.80
2018-08-11T03:20:02.267Z,15.00
2018-08-11T03:22:30.574Z,15.00
2018-08-11T03:24:58.822Z,15.00
2018-08-11T03:27:27.074Z,15.00
2018-08-11T03:29:55.331Z,15.20
2018-08-11T03:32:23.591Z,15.20
2018-08-11T03:34:51.831Z,15.20
2018-08-11T03:37:20.074Z,15.20
2018-08-11T03:39:48.309Z,15.10
2018-08-11T03:42:16.549Z,15.10
2018-08-11T03:44:44.786Z,15.00
2018-08-11T03:47:13.027Z,14.90
2018-08-11T03:49:41.267Z,14.90
2018-08-11T03:52:09.517Z,14.80
2018-08-11T03:54:37.763Z,14.70
2018-08-11T03:57:06.042Z,14.70
2018-08-11T03:59:34.291Z,14.70
2018-08-11T04:02:02.626Z,14.70
2018-08-11T04:04:30.976Z,14.70
2018-08-11T04:06:59.474Z,14.70
2018-08-11T04:09:27.770Z,14.70
2018-08-11T04:11:56.022Z,14.70
2018-08-11T04:14:24.295Z,14.70
2018-08-11T04:16:52.574Z,14.70
2018-08-11T04:19:20.838Z,14.70
2018-08-11T04:21:49.107Z,14.70
2018-08-11T04:24:17.363Z,14.70
2018-08-11T04:26:45.630Z,14.70
2018-08-11T04:29:13.907Z,14.70
2018-08-11T04:31:42.193Z,14.70
2018-08-11T04:34:10.719Z,14.70
2018-08-11T04:36:38.965Z,14.80
2018-08-11T04:39:08.552Z,14.80
2018-08-11T04:41:37.331Z,14.70
2018-08-11T04:44:05.646Z,14.70
2018-08-11T04:46:33.907Z,14.70
2018-08-11T04:49:02.219Z,14.70
2018-08-11T04:51:30.497Z,14.80
2018-08-11T04:53:58.820Z,14.70
2018-08-11T04:56:27.150Z,14.70
2018-08-11T04:58:55.426Z,14.70
2018-08-11T05:01:23.702Z,14.70
2018-08-11T05:03:52.388Z,14.80
2018-08-11T05:06:20.671Z,14.80
2018-08-11T05:08:48.956Z,14.80
2018-08-11T05:11:17.242Z,14.90
2018-08-11T05:13:45.521Z,14.70
2018-08-11T05:16:13.792Z,14.80
2018-08-11T05:18:42.065Z,14.90
2018-08-11T05:21:10.321Z,14.70
2018-08-11T05:23:38.582Z,14.80
2018-08-11T05:26:06.870Z,14.90
2018-08-11T05:28:35.123Z,14.90
2018-08-11T05:31:03.709Z,14.90
2018-08-11T05:33:32.055Z,15.00
2018-08-11T05:36:00.328Z,15.20
2018-08-11T05:38:28.686Z,15.30
2018-08-11T05:40:56.954Z,15.40
2018-08-11T05:43:25.226Z,15.60
2018-08-11T05:45:53.689Z,15.60
2018-08-11T05:48:21.942Z,15.70
2018-08-11T05:50:50.200Z,15.80
2018-08-11T05:53:18.474Z,16.00
2018-08-11T05:55:46.761Z,16.20
2018-08-11T05:58:15.035Z,16.30
2018-08-11T06:00:48.630Z,16.50
2018-08-11T06:03:16.891Z,16.70
2018-08-11T06:05:45.152Z,16.90
2018-08-11T06:08:13.424Z,17.10
2018-08-11T06:10:41.694Z,17.30
2018-08-11T06:13:10.047Z,17.30
2018-08-11T06:15:38.314Z,17.30
2018-08-11T06:18:06.859Z,17.20
2018-08-11T06:20:35.153Z,17.40
2018-08-11T06:23:03.413Z,17.50
2018-08-11T06:25:31.846Z,17.60
2018-08-11T06:28:00.250Z,17.60
2018-08-11T06:30:28.511Z,17.70
2018-08-11T06:32:56.787Z,17.70
2018-08-11T06:35:25.051Z,17.70
2018-08-11T06:37:53.381Z,17.70
2018-08-11T06:40:21.630Z,17.90
2018-08-11T06:42:49.970Z,18.10
2018-08-11T06:45:19.234Z,18.40
2018-08-11T06:47:48.237Z,18.50
2018-08-11T06:50:16.537Z,18.50
2018-08-11T06:52:45.915Z,18.60
2018-08-11T06:55:14.243Z,18.80
2018-08-11T06:57:42.531Z,19.00
2018-08-11T07:00:10.993Z,19.40
2018-08-11T07:02:39.276Z,19.50
2018-08-11T07:05:07.790Z,19.60
2018-08-11T07:07:36.105Z,19.70
2018-08-11T07:10:04.646Z,19.90
2018-08-11T07:12:32.950Z,19.90
2018-08-11T07:15:01.220Z,20.00
2018-08-11T07:17:29.797Z,20.10
2018-08-11T07:19:58.068Z,20.10
2018-08-11T07:22:26.356Z,20.30
2018-08-11T07:24:54.616Z,20.50
2018-08-11T07:27:23.600Z,20.70
2018-08-11T07:29:52.202Z,20.90
2018-08-11T07:32:20.477Z,21.10
2018-08-11T07:34:48.778Z,22.60
2018-08-11T07:37:17.051Z,24.20
2018-08-11T07:39:45.305Z,26.00
2018-08-11T07:42:14.430Z,26.80
2018-08-11T07:44:42.941Z,27.30
2018-08-11T07:47:11.358Z,27.90
2018-08-11T07:49:39.640Z,28.90
2018-08-11T07:52:08.238Z,29.20
2018-08-11T07:54:36.486Z,29.20
2018-08-11T07:57:05.187Z,29.00
2018-08-11T07:59:33.690Z,29.90
2018-08-11T08:02:01.998Z,30.70
2018-08-11T08:04:30.450Z,30.00
2018-08-11T08:06:59.012Z,30.10
2018-08-11T08:09:27.402Z,30.60
2018-08-11T08:11:55.671Z,31.00
2018-08-11T08:14:24.029Z,31.40
2018-08-11T08:16:52.360Z,30.70
2018-08-11T08:19:20.658Z,30.60
2018-08-11T08:21:48.941Z,30.90
2018-08-11T08:24:17.317Z,30.40
2018-08-11T08:26:46.530Z,31.90
2018-08-11T08:29:15.674Z,31.20
2018-08-11T08:31:44.812Z,30.30
2018-08-11T08:34:13.983Z,29.20
2018-08-11T08:36:43.064Z,27.40
2018-08-11T08:39:13.046Z,26.60
2018-08-11T08:41:42.131Z,26.60
2018-08-11T08:44:11.666Z,26.50
2018-08-11T08:46:40.659Z,26.10
2018-08-11T08:49:09.764Z,27.20
2018-08-11T08:51:38.693Z,28.30
2018-08-11T08:54:07.907Z,28.40
2018-08-11T08:56:36.928Z,27.60
2018-08-11T08:59:06.284Z,27.00
2018-08-11T09:01:36.525Z,27.40
2018-08-11T09:04:05.157Z,28.80
2018-08-11T09:06:33.510Z,28.70
2018-08-11T09:09:02.665Z,30.60
2018-08-11T09:11:31.696Z,31.60
2018-08-11T09:14:00.805Z,31.20
2018-08-11T09:16:29.704Z,31.80
2018-08-11T09:18:58.696Z,32.60
2018-08-11T09:21:27.679Z,32.10
2018-08-11T09:23:56.547Z,31.40
2018-08-11T09:26:25.332Z,31.90
2018-08-11T09:28:54.347Z,31.50
2018-08-11T09:31:23.526Z,30.80
2018-08-11T09:33:52.435Z,31.00
2018-08-11T09:36:21.513Z,31.60
2018-08-11T09:38:50.463Z,31.20
2018-08-11T09:41:19.307Z,31.40
2018-08-11T09:43:48.364Z,29.70
2018-08-11T09:46:17.333Z,29.50
2018-08-11T09:48:46.215Z,30.90
2018-08-11T09:51:15.069Z,33.10
2018-08-11T09:53:43.954Z,34.50
2018-08-11T09:56:12.983Z,32.50
2018-08-11T09:58:42.196Z,31.40
2018-08-11T10:01:16.345Z,30.10
2018-08-11T10:03:45.396Z,28.70
2018-08-11T10:06:14.316Z,27.40
2018-08-11T10:08:43.388Z,27.40
2018-08-11T10:11:12.451Z,26.70
2018-08-11T10:13:41.174Z,27.50
2018-08-11T10:16:10.150Z,29.00
2018-08-11T10:18:39.315Z,30.80
2018-08-11T10:21:08.503Z,29.30
2018-08-11T10:23:37.506Z,27.50
2018-08-11T10:26:06.866Z,26.90
2018-08-11T10:28:35.854Z,27.40
2018-08-11T10:31:05.205Z,26.80
2018-08-11T10:33:34.333Z,26.60
2018-08-11T10:36:03.499Z,26.60
2018-08-11T10:38:32.357Z,28.20
2018-08-11T10:41:01.226Z,29.90
2018-08-11T10:43:30.334Z,30.50
2018-08-11T10:45:59.442Z,30.70
2018-08-11T10:48:28.473Z,31.30
2018-08-11T10:50:57.219Z,30.60
2018-08-11T10:53:26.091Z,31.40
2018-08-11T10:55:55.165Z,31.40
2018-08-11T10:58:24.040Z,30.50
2018-08-11T11:00:53.196Z,30.90
2018-08-11T11:03:23.503Z,30.60
2018-08-11T11:05:52.515Z,30.00
2018-08-11T11:08:21.474Z,28.60
2018-08-11T11:10:50.425Z,29.00
2018-08-11T11:13:19.653Z,29.50
2018-08-11T11:15:48.966Z,28.80
2018-08-11T11:18:18.094Z,27.70
2018-08-11T11:20:47.142Z,27.60
2018-08-11T11:23:15.562Z,28.00
2018-08-11T11:25:43.844Z,28.50
2018-08-11T11:28:12.171Z,28.00
2018-08-11T11:30:40.810Z,26.70
2018-08-11T11:33:09.788Z,25.60
2018-08-11T11:35:38.941Z,24.60
2018-08-11T11:38:07.883Z,24.40
2018-08-11T11:40:37.003Z,24.90
2018-08-11T11:43:06.183Z,26.10
2018-08-11T11:45:35.360Z,27.20
2018-08-11T11:48:04.372Z,27.20
2018-08-11T11:50:33.271Z,27.10
2018-08-11T11:53:02.573Z,26.90
2018-08-11T11:55:31.551Z,27.30
2018-08-11T11:58:02.077Z,28.30
2018-08-11T12:00:31.346Z,28.50
2018-08-11T12:03:00.213Z,29.20
2018-08-11T12:05:29.256Z,28.70
2018-08-11T12:07:58.013Z,28.40
2018-08-11T12:10:27.232Z,29.30
2018-08-11T12:12:56.358Z,29.30
2018-08-11T12:15:25.361Z,29.40
2018-08-11T12:17:54.279Z,29.10
2018-08-11T12:20:23.576Z,30.10
2018-08-11T12:22:52.639Z,29.80
2018-08-11T12:25:22.496Z,30.10
2018-08-11T12:27:51.743Z,29.70
2018-08-11T12:30:20.857Z,30.20
2018-08-11T12:32:50.162Z,30.40
2018-08-11T12:35:19.099Z,30.40
2018-08-11T12:37:48.090Z,30.30
2018-08-11T12:40:17.271Z,29.50
2018-08-11T12:42:46.206Z,29.30
2018-08-11T12:45:15.198Z,28.60
2018-08-11T12:47:44.276Z,28.20
2018-08-11T12:50:13.210Z,27.20
2018-08-11T12:52:42.087Z,26.70
2018-08-11T12:55:11.123Z,26.10
2018-08-11T12:57:40.004Z,25.80
2018-08-11T13:00:11.039Z,25.70
2018-08-11T13:02:40.081Z,25.70
2018-08-11T13:05:09.167Z,25.80
2018-08-11T13:07:37.966Z,26.20
2018-08-11T13:10:07.421Z,26.70
2018-08-11T13:12:36.255Z,26.70
2018-08-11T13:15:05.937Z,26.70
2018-08-11T13:17:34.648Z,26.80
2018-08-11T13:20:03.576Z,26.40
2018-08-11T13:22:33.899Z,25.90
2018-08-11T13:25:02.900Z,26.10
2018-08-11T13:27:32.357Z,26.30
2018-08-11T13:30:01.363Z,26.70
2018-08-11T13:32:30.249Z,27.00
2018-08-11T13:34:59.064Z,26.90
2018-08-11T13:37:27.999Z,26.40
2018-08-11T13:39:57.773Z,26.40
2018-08-11T13:42:26.996Z,26.40
2018-08-11T13:44:56.038Z,26.90
2018-08-11T13:47:24.973Z,27.30
2018-08-11T13:49:53.364Z,27.60
2018-08-11T13:52:21.695Z,27.70
2018-08-11T13:54:50.874Z,27.30
2018-08-11T13:57:19.837Z,27.00
2018-08-11T13:59:50.955Z,26.70
2018-08-11T14:02:19.402Z,26.60
2018-08-11T14:04:48.538Z,26.80
2018-08-11T14:07:17.473Z,26.80
2018-08-11T14:09:46.690Z,26.60
2018-08-11T14:12:15.900Z,26.40
2018-08-11T14:14:44.814Z,26.30
2018-08-11T14:17:13.715Z,26.40
2018-08-11T14:19:42.733Z,26.10
2018-08-11T14:22:11.775Z,26.30
2018-08-11T14:24:42.279Z,26.30
2018-08-11T14:27:11.406Z,26.10
2018-08-11T14:32:51.021Z,25.90
2018-08-11T14:35:20.052Z,26.00
2018-08-11T14:37:48.839Z,26.00
2018-08-11T14:40:17.843Z,26.30
2018-08-11T14:42:48.761Z,26.30
2018-08-11T14:45:17.788Z,26.00
2018-08-11T14:47:47.142Z,25.90
2018-08-11T14:50:16.082Z,25.90
2018-08-11T14:52:45.282Z,26.10
2018-08-11T14:55:14.276Z,26.30
2018-08-11T14:57:44.983Z,26.20
2018-08-11T15:00:15.621Z,26.30
2018-08-11T15:02:44.612Z,26.40
2018-08-11T15:05:13.717Z,26.40
2018-08-11T15:07:42.659Z,26.40
2018-08-11T15:10:11.819Z,26.50
2018-08-11T15:12:40.054Z,26.40
2018-08-11T15:15:10.268Z,26.00
2018-08-11T15:17:41.265Z,25.70
2018-08-11T15:20:10.513Z,25.80
2018-08-11T15:22:44.232Z,25.80
2018-08-11T15:25:13.050Z,25.70
2018-08-11T15:27:42.029Z,25.80
2018-08-11T15:30:13.910Z,25.60
2018-08-11T15:32:42.798Z,25.70
2018-08-11T15:35:11.784Z,25.80
2018-08-11T15:37:40.987Z,25.80
2018-08-11T15:40:09.922Z,25.70
2018-08-11T15:42:38.744Z,25.60
2018-08-11T15:45:08.164Z,25.50
2018-08-11T15:47:37.547Z,25.30
2018-08-11T15:50:06.107Z,25.40
2018-08-11T15:52:35.417Z,25.40
2018-08-11T15:55:04.345Z,25.20
2018-08-11T15:57:33.437Z,24.80
2018-08-11T16:00:01.779Z,24.80
2018-08-11T16:02:30.812Z,24.70
2018-08-11T16:05:00.100Z,24.90
2018-08-11T16:07:29.071Z,25.00
2018-08-11T16:09:58.436Z,25.00
2018-08-11T16:12:27.224Z,25.00
2018-08-11T16:14:56.429Z,25.10
2018-08-11T16:17:25.222Z,25.20
2018-08-11T16:19:54.080Z,25.00
2018-08-11T16:22:23.197Z,25.10
2018-08-11T16:24:52.132Z,25.00
2018-08-11T16:27:21.685Z,24.90
2018-08-11T16:29:52.073Z,25.00
2018-08-11T16:32:22.473Z,24.80
2018-08-11T16:34:51.362Z,24.70
2018-08-11T16:37:21.198Z,24.40
2018-08-11T16:39:50.087Z,24.10
2018-08-11T16:42:19.029Z,23.90
2018-08-11T16:44:47.988Z,23.80
2018-08-11T16:47:16.925Z,23.80
2018-08-11T16:49:45.764Z,23.90
2018-08-11T16:55:05.499Z,24.00
2018-08-11T16:57:34.346Z,24.10
2018-08-11T17:00:03.435Z,24.20
2018-08-11T17:02:32.775Z,24.10
2018-08-11T17:05:02.115Z,24.10
2018-08-11T17:07:31.347Z,24.10
2018-08-11T17:10:00.154Z,24.10
2018-08-11T17:12:29.062Z,24.10
2018-08-11T17:14:57.962Z,24.10
2018-08-11T17:17:27.300Z,24.10
2018-08-11T17:19:56.381Z,24.10
2018-08-11T17:22:25.324Z,24.00
2018-08-11T17:24:54.259Z,24.00
2018-08-11T17:27:23.138Z,23.90
2018-08-11T17:29:51.924Z,23.90
2018-08-11T17:32:20.811Z,23.80
2018-08-11T17:34:50.242Z,23.80
2018-08-11T17:37:19.098Z,23.80
2018-08-11T17:39:47.921Z,23.70
2018-08-11T17:42:16.620Z,23.60
2018-08-11T17:44:45.335Z,23.60
2018-08-11T17:47:15.303Z,23.50
2018-08-11T17:49:44.284Z,23.50
2018-08-11T17:52:13.143Z,23.40
2018-08-11T17:54:41.966Z,23.40
2018-08-11T17:57:10.278Z,23.40
2018-08-11T17:59:39.482Z,23.30
2018-08-11T18:02:08.948Z,23.20
2018-08-11T18:04:37.459Z,23.10
2018-08-11T18:07:06.651Z,23.00
2018-08-11T18:09:35.445Z,22.80
2018-08-11T18:12:04.512Z,22.70
2018-08-11T18:14:33.391Z,22.70
2018-08-11T18:17:02.305Z,22.50
2018-08-11T18:19:33.768Z,22.30
2018-08-11T18:22:02.782Z,22.10
2018-08-11T18:24:32.523Z,22.00
2018-08-11T18:27:01.679Z,21.90
2018-08-11T18:29:30.630Z,21.90
2018-08-11T18:31:59.484Z,21.80
2018-08-11T18:34:28.407Z,21.80
2018-08-11T18:36:57.411Z,21.60
2018-08-11T18:39:27.867Z,21.60
2018-08-11T18:41:56.689Z,21.50
2018-08-11T18:44:25.663Z,21.40
2018-08-11T18:46:54.562Z,21.20
2018-08-11T18:49:23.858Z,21.10
2018-08-11T18:51:52.887Z,20.90
2018-08-11T18:54:22.411Z,20.70
2018-08-11T18:56:51.357Z,20.60
2018-08-11T18:59:20.298Z,20.40
2018-08-11T19:01:49.370Z,20.30
2018-08-11T19:04:18.210Z,20.10
2018-08-11T19:06:47.105Z,19.90
2018-08-11T19:09:16.011Z,19.80
2018-08-11T19:11:44.777Z,19.70
2018-08-11T19:14:13.719Z,19.50
2018-08-11T19:16:42.642Z,19.30
2018-08-11T19:19:11.696Z,19.10
2018-08-11T19:21:39.950Z,19.00
2018-08-11T19:24:08.243Z,18.80
2018-08-11T19:26:36.503Z,18.70
2018-08-11T19:29:04.861Z,18.60
2018-08-11T19:31:33.883Z,18.50
2018-08-11T19:34:02.712Z,18.40
2018-08-11T19:36:31.684Z,18.20
2018-08-11T19:39:00.376Z,18.10
2018-08-11T19:41:29.306Z,18.00
2018-08-11T19:43:58.309Z,17.80
2018-08-11T19:46:27.210Z,17.70
2018-08-11T19:48:56.286Z,17.60
2018-08-11T19:51:25.293Z,17.50
2018-08-11T19:53:54.045Z,17.40
2018-08-11T19:56:23.018Z,17.40
2018-08-11T19:58:52.079Z,17.30
2018-08-11T20:01:21.026Z,17.30
2018-08-11T20:03:49.956Z,17.20
2018-08-11T20:06:18.899Z,17.10
2018-08-11T20:08:47.665Z,17.00
2018-08-11T20:11:16.603Z,17.10
2018-08-11T20:13:45.551Z,16.90
2018-08-11T20:16:14.391Z,16.80
2018-08-11T20:18:42.705Z,16.80
2018-08-11T20:21:10.961Z,16.80
2018-08-11T20:23:39.235Z,17.00
2018-08-11T20:26:07.498Z,17.00
2018-08-11T20:28:35.763Z,16.90
2018-08-11T20:31:04.023Z,16.90
2018-08-11T20:33:32.411Z,17.00
2018-08-11T20:36:00.667Z,17.00
2018-08-11T20:38:28.945Z,17.00
2018-08-11T20:40:57.282Z,17.10
2018-08-11T20:43:25.538Z,17.20
2018-08-11T20:45:53.837Z,17.10
2018-08-11T20:48:22.114Z,17.10
2018-08-11T20:50:50.404Z,17.20
2018-08-11T20:53:18.699Z,17.10
2018-08-11T20:55:47.039Z,17.00
2018-08-11T20:58:15.339Z,16.90
2018-08-11T21:00:43.726Z,16.90
2018-08-11T21:03:12.740Z,16.80
2018-08-11T21:05:41.015Z,16.60
2018-08-11T21:08:09.300Z,16.50
2018-08-11T21:10:37.601Z,16.50
2018-08-11T21:13:06.113Z,16.40
2018-08-11T21:15:34.478Z,16.30
2018-08-11T21:18:02.764Z,16.30
2018-08-11T21:20:31.059Z,16.10
2018-08-11T21:22:59.358Z,16.10
2018-08-11T21:25:27.649Z,16.10
2018-08-11T21:27:56.052Z,16.10
2018-08-11T21:33:15.153Z,16.10
2018-08-11T21:35:43.417Z,16.00
2018-08-11T21:38:11.658Z,15.90
2018-08-11T21:40:39.933Z,15.90
2018-08-11T21:48:07.101Z,15.70
2018-08-11T21:50:35.405Z,15.10
2018-08-11T21:53:03.709Z,14.90
2018-08-11T21:55:31.973Z,14.80
2018-08-11T21:58:00.250Z,14.80
2018-08-11T22:00:35.505Z,14.70
2018-08-11T22:03:04.028Z,14.50
2018-08-11T22:05:32.429Z,14.40
2018-08-11T22:08:01.621Z,14.40
2018-08-11T22:10:30.319Z,14.40
2018-08-11T22:12:58.762Z,14.40
2018-08-11T22:15:27.101Z,14.40
2018-08-11T22:17:55.374Z,14.40
2018-08-11T22:20:23.687Z,14.50
2018-08-11T22:22:52.054Z,14.50
2018-08-11T22:25:20.379Z,14.40
2018-08-11T22:27:48.646Z,14.20
2018-08-11T22:30:17.039Z,13.90
2018-08-11T22:32:45.309Z,14.10
2018-08-11T22:35:13.592Z,14.00
2018-08-11T22:37:41.854Z,13.90
2018-08-11T22:40:10.117Z,13.90
2018-08-11T22:42:38.974Z,13.90
2018-08-11T22:45:08.802Z,13.90
2018-08-11T22:47:37.535Z,13.80
2018-08-11T22:50:07.717Z,13.80
2018-08-11T22:52:36.331Z,13.90
2018-08-11T22:55:05.054Z,13.90
2018-08-11T22:57:33.421Z,13.80
2018-08-11T23:00:01.714Z,13.90
2018-08-11T23:02:30.022Z,13.80
2018-08-11T23:04:58.313Z,13.60
2018-08-11T23:07:26.601Z,13.30
2018-08-11T23:09:54.874Z,13.10
2018-08-11T23:12:23.134Z,13.10
2018-08-11T23:14:51.385Z,13.10
2018-08-11T23:17:19.679Z,12.90
2018-08-11T23:19:48.006Z,12.80
2018-08-11T23:22:16.281Z,12.90
2018-08-11T23:24:44.566Z,12.80
2018-08-11T23:27:12.886Z,12.60
2018-08-11T23:29:41.161Z,12.50
2018-08-11T23:32:09.464Z,12.60
2018-08-11T23:34:37.732Z,12.60
2018-08-11T23:37:06.007Z,12.80
2018-08-11T23:39:34.370Z,12.80
2018-08-11T23:42:02.638Z,12.80
2018-08-11T23:44:30.913Z,12.80
2018-08-11T23:46:59.172Z,12.80
2018-08-11T23:49:27.467Z,12.80
2018-08-11T23:51:55.741Z,12.80
2018-08-11T23:54:24.045Z,12.80
2018-08-11T23:56:52.336Z,12.70
2018-08-11T23:59:20.623Z,12.70
